createdAt,value
2023-04-04T00:00:03.232Z,96828.53
2023-04-04T00:02:31.311Z,96833.50
2023-04-04T00:05:00.064Z,96833.34
2023-04-04T00:07:29.198Z,96829.22
2023-04-04T00:09:56.973Z,96825.91
2023-04-04T00:12:28.378Z,96822.97
2023-04-04T00:14:57.657Z,96826.59
2023-04-04T00:17:25.651Z,96821.34
2023-04-04T00:19:53.396Z,96825.28
2023-04-04T00:22:21.216Z,96813.88
2023-04-04T00:24:50.872Z,96820.03
2023-04-04T00:27:18.607Z,96814.75
2023-04-04T00:29:47.216Z,96819.22
2023-04-04T00:32:15.069Z,96824.03
2023-04-04T00:34:43.219Z,96822.34
2023-04-04T00:37:13.126Z,96821.03
2023-04-04T00:39:41.049Z,96815.81
2023-04-04T00:42:10.157Z,96818.25
2023-04-04T00:44:37.962Z,96813.16
2023-04-04T00:47:06.346Z,96812.88
2023-04-04T00:49:34.629Z,96818.47
2023-04-04T00:52:02.395Z,96815.13
2023-04-04T00:54:31.588Z,96808.97
2023-04-04T00:56:59.692Z,96808.31
2023-04-04T00:59:29.390Z,96809.31
2023-04-04T01:01:57.706Z,96818.91
2023-04-04T01:04:25.582Z,96817.22
2023-04-04T01:06:53.608Z,96814.91
2023-04-04T01:09:23.009Z,96813.47
2023-04-04T01:11:51.538Z,96817.22
2023-04-04T01:14:19.787Z,96817.22
2023-04-04T01:16:49.637Z,96815.47
2023-04-04T01:19:25.691Z,96815.59
2023-04-04T01:21:55.258Z,96809.69
2023-04-04T01:24:24.330Z,96812.31
2023-04-04T01:26:53.558Z,96805.94
2023-04-04T01:29:21.321Z,96801.47
2023-04-04T01:31:56.323Z,96805.09
2023-04-04T01:34:33.021Z,96795.09
2023-04-04T01:37:05.431Z,96789.16
2023-04-04T01:39:37.612Z,96783.75
2023-04-04T01:42:08.488Z,96790.50
2023-04-04T01:44:37.210Z,96793.66
2023-04-04T01:47:08.713Z,96801.56
2023-04-04T01:49:36.648Z,96780.53
2023-04-04T01:52:07.421Z,96796.28
2023-04-04T01:54:36.591Z,96793.34
2023-04-04T01:57:04.316Z,96800.56
2023-04-04T01:59:33.394Z,96807.16
2023-04-04T02:02:01.371Z,96806.50
2023-04-04T02:04:30.324Z,96807.19
2023-04-04T02:06:59.154Z,96813.81
2023-04-04T02:09:26.967Z,96799.81
2023-04-04T02:11:54.676Z,96797.66
2023-04-04T02:14:22.561Z,96799.63
2023-04-04T02:16:51.910Z,96798.31
2023-04-04T02:19:20.083Z,96787.78
2023-04-04T02:21:47.853Z,96800.97
2023-04-04T02:24:15.759Z,96777.13
2023-04-04T02:26:43.653Z,96785.81
2023-04-04T02:29:11.751Z,96794.06
2023-04-04T02:31:39.540Z,96791.44
2023-04-04T02:34:08.892Z,96800.66
2023-04-04T02:36:36.767Z,96789.31
2023-04-04T02:39:05.928Z,96786.53
2023-04-04T02:41:33.792Z,96788.81
2023-04-04T02:44:01.555Z,96775.16
2023-04-04T02:46:29.371Z,96787.03
2023-04-04T02:48:57.490Z,96787.03
2023-04-04T02:51:26.684Z,96780.25
2023-04-04T02:53:54.450Z,96777.63
2023-04-04T02:56:22.293Z,96779.28
2023-04-04T02:58:50.070Z,96785.53
2023-04-04T03:01:17.989Z,96779.94
2023-04-04T03:03:46.520Z,96787.50
2023-04-04T03:06:15.203Z,96781.28
2023-04-04T03:08:44.490Z,96777.31
2023-04-04T03:11:12.198Z,96784.88
2023-04-04T03:13:39.954Z,96781.41
2023-04-04T03:16:10.841Z,96788.84
2023-04-04T03:18:39.313Z,96779.28
2023-04-04T03:21:07.140Z,96776.47
2023-04-04T03:23:35.158Z,96782.22
2023-04-04T03:26:04.308Z,96772.38
2023-04-04T03:28:32.034Z,96786.19
2023-04-04T03:31:04.713Z,96771.03
2023-04-04T03:33:33.509Z,96779.94
2023-04-04T03:36:01.543Z,96778.97
2023-04-04T03:38:29.411Z,96775.66
2023-04-04T03:41:04.395Z,96776.16
2023-04-04T03:43:32.599Z,96773.34
2023-04-04T03:46:02.798Z,96768.56
2023-04-04T03:48:31.105Z,96769.06
2023-04-04T03:50:59.830Z,96773.81
2023-04-04T03:53:28.420Z,96778.78
2023-04-04T03:55:57.983Z,96781.56
2023-04-04T03:58:28.501Z,96784.03
2023-04-04T04:00:56.560Z,96778.59
2023-04-04T04:03:25.067Z,96774.63
2023-04-04T04:05:53.673Z,96793.38
2023-04-04T04:08:23.090Z,96788.94
2023-04-04T04:10:51.874Z,96785.50
2023-04-04T04:13:19.790Z,96796.16
2023-04-04T04:15:49.368Z,96794.72
2023-04-04T04:18:17.249Z,96797.94
2023-04-04T04:20:45.502Z,96792.41
2023-04-04T04:23:13.320Z,96799.94
2023-04-04T04:25:41.158Z,96789.72
2023-04-04T04:28:09.665Z,96801.88
2023-04-04T04:30:37.906Z,96804.50
2023-04-04T04:33:07.518Z,96804.81
2023-04-04T04:35:37.921Z,96794.28
2023-04-04T04:38:06.191Z,96803.03
2023-04-04T04:40:34.134Z,96805.66
2023-04-04T04:43:02.043Z,96807.78
2023-04-04T04:45:29.854Z,96806.16
2023-04-04T04:47:57.828Z,96811.41
2023-04-04T04:50:27.239Z,96811.41
2023-04-04T04:52:55.151Z,96821.56
2023-04-04T04:55:22.984Z,96808.88
2023-04-04T04:57:51.194Z,96820.91
2023-04-04T05:00:20.213Z,96813.81
2023-04-04T05:02:48.202Z,96824.19
2023-04-04T05:05:16.730Z,96809.72
2023-04-04T05:07:47.747Z,96814.00
2023-04-04T05:10:15.867Z,96825.03
2023-04-04T05:12:44.759Z,96822.56
2023-04-04T05:15:13.453Z,96830.00
2023-04-04T05:17:41.983Z,96821.78
2023-04-04T05:20:10.842Z,96821.63
2023-04-04T05:22:43.374Z,96821.94
2023-04-04T05:25:13.407Z,96826.28
2023-04-04T05:27:41.263Z,96823.97
2023-04-04T05:30:09.842Z,96824.78
2023-04-04T05:32:38.174Z,96830.72
2023-04-04T05:35:07.520Z,96820.38
2023-04-04T05:37:35.358Z,96828.97
2023-04-04T05:40:03.218Z,96826.97
2023-04-04T05:42:32.515Z,96837.50
2023-04-04T05:45:00.424Z,96830.44
2023-04-04T05:47:28.673Z,96835.53
2023-04-04T05:49:56.983Z,96836.03
2023-04-04T05:52:25.483Z,96829.44
2023-04-04T05:54:53.409Z,96835.56
2023-04-04T05:57:22.427Z,96836.84
2023-04-04T05:59:52.605Z,96838.19
2023-04-04T06:02:21.097Z,96852.47
2023-04-04T06:04:49.335Z,96849.84
2023-04-04T06:07:17.221Z,96842.88
2023-04-04T06:09:45.498Z,96851.88
2023-04-04T06:12:13.504Z,96846.72
2023-04-04T06:14:41.256Z,96853.19
2023-04-04T06:17:10.875Z,96854.69
2023-04-04T06:19:38.629Z,96851.88
2023-04-04T06:22:06.363Z,96853.59
2023-04-04T06:24:36.155Z,96854.59
2023-04-04T06:27:04.800Z,96857.88
2023-04-04T06:29:32.499Z,96859.91
2023-04-04T06:32:00.951Z,96854.00
2023-04-04T06:34:30.359Z,96869.56
2023-04-04T06:36:58.110Z,96870.75
2023-04-04T06:39:26.072Z,96859.28
2023-04-04T06:41:53.769Z,96878.44
2023-04-04T06:44:21.549Z,96783.22
2023-04-04T06:46:49.396Z,96866.63
2023-04-04T06:49:17.185Z,96867.75
2023-04-04T06:51:46.795Z,96863.97
2023-04-04T06:54:14.745Z,96869.22
2023-04-04T06:56:42.522Z,96871.72
2023-04-04T06:59:11.455Z,96868.06
2023-04-04T07:01:39.332Z,96862.44
2023-04-04T07:04:07.416Z,96861.84
2023-04-04T07:06:35.194Z,96862.66
2023-04-04T07:09:05.881Z,96860.53
2023-04-04T07:11:34.872Z,96864.59
2023-04-04T07:14:02.582Z,96856.59
2023-04-04T07:16:31.706Z,96861.50
2023-04-04T07:18:59.624Z,96869.09
2023-04-04T07:21:27.402Z,96864.47
2023-04-04T07:23:55.229Z,96863.47
2023-04-04T07:26:24.328Z,96875.66
2023-04-04T07:28:52.943Z,96867.22
2023-04-04T07:31:20.763Z,96871.34
2023-04-04T07:33:48.688Z,96853.66
2023-04-04T07:36:16.432Z,96860.63
2023-04-04T07:38:45.532Z,96857.41
2023-04-04T07:41:14.230Z,96856.50
2023-04-04T07:43:43.638Z,96862.81
2023-04-04T07:46:11.825Z,96856.19
2023-04-04T07:48:39.785Z,96857.78
2023-04-04T07:51:07.564Z,96863.66
2023-04-04T07:53:35.372Z,96853.00
2023-04-04T07:56:06.384Z,96857.00
2023-04-04T07:58:35.094Z,96858.25
2023-04-04T08:01:05.020Z,96854.16
2023-04-04T08:03:33.106Z,96868.78
2023-04-04T08:06:00.947Z,96858.00
2023-04-04T08:08:29.674Z,96853.31
2023-04-04T08:10:57.348Z,96846.16
2023-04-04T08:13:25.164Z,96854.16
2023-04-04T08:15:52.898Z,96849.00
2023-04-04T08:18:22.087Z,96858.47
2023-04-04T08:20:49.819Z,96845.75
2023-04-04T08:23:17.570Z,96845.13
2023-04-04T08:25:46.270Z,96833.56
2023-04-04T08:28:15.641Z,96855.63
2023-04-04T08:30:43.531Z,96846.97
2023-04-04T08:33:11.613Z,96852.03
2023-04-04T08:35:40.766Z,96851.50
2023-04-04T08:38:08.858Z,96855.97
2023-04-04T08:40:38.615Z,96850.09
2023-04-04T08:43:07.756Z,96859.13
2023-04-04T08:45:36.562Z,96844.69
2023-04-04T08:48:06.089Z,96851.81
2023-04-04T08:50:37.286Z,96854.25
2023-04-04T08:53:07.770Z,96842.44
2023-04-04T08:55:35.744Z,96843.06
2023-04-04T08:58:03.800Z,96841.78
2023-04-04T09:00:32.004Z,96848.34
2023-04-04T09:03:08.296Z,96845.63
2023-04-04T09:05:37.051Z,96846.78
2023-04-04T09:08:07.375Z,96844.91
2023-04-04T09:10:36.181Z,96841.16
2023-04-04T09:13:14.456Z,96847.53
2023-04-04T09:15:49.271Z,96836.25
2023-04-04T09:18:18.033Z,96846.56
2023-04-04T09:20:47.110Z,96841.22
2023-04-04T09:23:18.700Z,96845.75
2023-04-04T09:26:02.579Z,96827.50
2023-04-04T09:28:31.470Z,96826.03
2023-04-04T09:31:01.828Z,96831.75
2023-04-04T09:33:30.101Z,96830.91
2023-04-04T09:36:00.227Z,96842.16
2023-04-04T09:38:30.667Z,96838.25
2023-04-04T09:40:59.051Z,96829.38
2023-04-04T09:43:31.356Z,96844.88
2023-04-04T09:46:01.840Z,96836.88
2023-04-04T09:48:32.609Z,96835.59
2023-04-04T09:51:00.810Z,96843.22
2023-04-04T09:53:29.910Z,96839.59
2023-04-04T09:55:59.020Z,96837.78
2023-04-04T09:58:28.332Z,96839.78
2023-04-04T10:00:58.114Z,96838.41
2023-04-04T10:03:26.600Z,96845.72
2023-04-04T10:05:57.755Z,96835.81
2023-04-04T10:08:27.767Z,96838.31
2023-04-04T10:11:10.398Z,96836.66
2023-04-04T10:13:42.371Z,96837.22
2023-04-04T10:16:10.591Z,96835.19
2023-04-04T10:18:39.328Z,96826.16
2023-04-04T10:23:43.053Z,96831.28
2023-04-04T10:26:13.218Z,96838.28
2023-04-04T10:28:42.080Z,96835.84
2023-04-04T10:31:18.280Z,96830.69
2023-04-04T10:33:53.576Z,96830.91
2023-04-04T10:36:24.370Z,96835.03
2023-04-04T10:39:04.813Z,96838.63
2023-04-04T10:41:34.984Z,96826.63
2023-04-04T10:44:14.514Z,96823.69
2023-04-04T10:46:44.329Z,96827.47
2023-04-04T10:49:13.103Z,96825.44
2023-04-04T10:51:52.906Z,96821.38
2023-04-04T10:54:23.972Z,96818.06
2023-04-04T10:56:53.677Z,96816.59
2023-04-04T10:59:21.975Z,96823.72
2023-04-04T11:01:58.307Z,96815.38
2023-04-04T11:04:34.319Z,96819.66
2023-04-04T11:07:12.956Z,96807.00
2023-04-04T11:09:51.714Z,96809.22
2023-04-04T11:12:34.430Z,96812.31
2023-04-04T11:15:14.416Z,96813.28
2023-04-04T11:17:56.304Z,96806.00
2023-04-04T11:20:25.831Z,96803.28
2023-04-04T11:23:05.368Z,96807.34
2023-04-04T11:25:36.031Z,96804.34
2023-04-04T11:28:10.193Z,96821.22
2023-04-04T11:30:48.268Z,96805.78
2023-04-04T11:33:28.561Z,96792.53
2023-04-04T11:36:01.008Z,96792.06
2023-04-04T11:38:30.481Z,96798.31
2023-04-04T11:40:58.800Z,96809.63
2023-04-04T11:43:29.784Z,96798.66
2023-04-04T11:46:08.419Z,96785.59
2023-04-04T11:48:36.940Z,96805.00
2023-04-04T11:51:05.035Z,96805.00
2023-04-04T11:53:34.220Z,96791.66
2023-04-04T11:56:02.257Z,96802.31
2023-04-04T11:58:31.378Z,96798.13
2023-04-04T12:00:59.267Z,96794.00
2023-04-04T12:03:30.186Z,96794.66
2023-04-04T12:05:58.601Z,96791.56
2023-04-04T12:08:26.870Z,96792.13
2023-04-04T12:10:54.824Z,96803.75
2023-04-04T12:13:22.572Z,96788.81
2023-04-04T12:15:51.731Z,96798.97
2023-04-04T12:18:23.046Z,96785.78
2023-04-04T12:20:52.810Z,96796.53
2023-04-04T12:23:21.020Z,96783.28
2023-04-04T12:25:55.797Z,96784.84
2023-04-04T12:28:25.363Z,96772.69
2023-04-04T12:30:56.674Z,96784.94
2023-04-04T12:33:24.565Z,96779.00
2023-04-04T12:35:54.845Z,96781.97
2023-04-04T12:38:22.877Z,96785.09
2023-04-04T12:40:52.579Z,96773.44
2023-04-04T12:43:20.853Z,96786.78
2023-04-04T12:45:51.263Z,96772.75
2023-04-04T12:48:22.611Z,96781.03
2023-04-04T12:50:52.759Z,96771.13
2023-04-04T12:53:28.996Z,96767.41
2023-04-04T12:56:05.725Z,96777.00
2023-04-04T12:58:35.983Z,96776.66
2023-04-04T13:01:05.619Z,96759.50
2023-04-04T13:03:35.461Z,96779.31
2023-04-04T13:06:03.686Z,96776.53
2023-04-04T13:08:31.779Z,96775.53
2023-04-04T13:11:05.903Z,96761.84
2023-04-04T13:13:35.515Z,96770.56
2023-04-04T13:16:04.510Z,96788.97
2023-04-04T13:18:38.798Z,96763.91
2023-04-04T13:21:08.495Z,96761.22
2023-04-04T13:23:37.699Z,96759.97
2023-04-04T13:26:06.122Z,96768.03
2023-04-04T13:28:33.917Z,96758.00
2023-04-04T13:31:04.175Z,96767.50
2023-04-04T13:33:32.682Z,96765.31
2023-04-04T13:36:02.594Z,96764.59
2023-04-04T13:38:30.693Z,96762.03
2023-04-04T13:40:59.873Z,96768.59
2023-04-04T13:43:27.957Z,96756.34
2023-04-04T13:45:56.232Z,96749.41
2023-04-04T13:48:24.468Z,96757.19
2023-04-04T13:50:53.308Z,96754.78
2023-04-04T13:53:22.562Z,96756.75
2023-04-04T13:56:13.782Z,96761.34
2023-04-04T13:58:39.150Z,96766.75
2023-04-04T14:01:07.272Z,96756.59
2023-04-04T14:03:35.191Z,96755.09
2023-04-04T14:06:09.814Z,96752.81
2023-04-04T14:08:40.404Z,96754.84
2023-04-04T14:11:08.588Z,96759.16
2023-04-04T14:13:36.734Z,96755.28
2023-04-04T14:16:04.766Z,96761.53
2023-04-04T14:18:32.618Z,96758.34
2023-04-04T14:21:00.444Z,96757.06
2023-04-04T14:23:30.662Z,96754.16
2023-04-04T14:25:59.846Z,96749.53
2023-04-04T14:28:28.080Z,96765.59
2023-04-04T14:30:56.347Z,96754.63
2023-04-04T14:33:24.118Z,96755.47
2023-04-04T14:35:52.016Z,96747.19
2023-04-04T14:38:19.822Z,96752.25
2023-04-04T14:40:48.398Z,96763.22
2023-04-04T14:43:17.715Z,96743.34
2023-04-04T14:45:46.005Z,96750.38
2023-04-04T14:48:13.822Z,96749.88
2023-04-04T14:50:42.903Z,96761.75
2023-04-04T14:53:10.816Z,96756.06
2023-04-04T14:55:38.926Z,96748.75
2023-04-04T14:58:07.045Z,96765.56
2023-04-04T15:00:36.283Z,96753.00
2023-04-04T15:03:07.212Z,96757.88
2023-04-04T15:05:35.149Z,96753.06
2023-04-04T15:08:03.014Z,96756.38
2023-04-04T15:10:30.860Z,96765.88
2023-04-04T15:12:58.587Z,96761.31
2023-04-04T15:15:26.721Z,96767.53
2023-04-04T15:17:55.941Z,96758.34
2023-04-04T15:20:23.806Z,96767.28
2023-04-04T15:22:51.643Z,96761.63
2023-04-04T15:25:19.460Z,96757.75
2023-04-04T15:27:47.254Z,96758.59
2023-04-04T15:30:15.942Z,96754.94
2023-04-04T15:32:43.717Z,96754.22
2023-04-04T15:35:21.150Z,96725.81
2023-04-04T15:37:50.279Z,96762.94
2023-04-04T15:40:18.408Z,96757.19
2023-04-04T15:42:47.095Z,96755.16
2023-04-04T15:45:15.516Z,96755.44
2023-04-04T15:47:44.969Z,96754.06
2023-04-04T15:50:13.323Z,96758.56
2023-04-04T15:52:42.567Z,96757.88
2023-04-04T15:55:13.382Z,96749.72
2023-04-04T15:57:44.886Z,96760.94
2023-04-04T16:00:14.136Z,96754.66
2023-04-04T16:02:42.174Z,96763.00
2023-04-04T16:05:10.444Z,96756.34
2023-04-04T16:07:38.188Z,96756.25
2023-04-04T16:10:09.023Z,96758.72
2023-04-04T16:12:36.897Z,96762.22
2023-04-04T16:15:05.993Z,96762.59
2023-04-04T16:17:33.713Z,96762.16
2023-04-04T16:20:01.765Z,96766.31
2023-04-04T16:22:29.612Z,96755.63
2023-04-04T16:24:57.404Z,96757.25
2023-04-04T16:27:27.090Z,96755.28
2023-04-04T16:29:54.909Z,96755.94
2023-04-04T16:32:22.986Z,96761.03
2023-04-04T16:34:50.777Z,96753.56
2023-04-04T16:37:18.580Z,96757.75
2023-04-04T16:39:47.140Z,96761.41
2023-04-04T16:42:19.225Z,96762.78
2023-04-04T16:44:48.324Z,96766.47
2023-04-04T16:47:16.116Z,96764.84
2023-04-04T16:49:43.914Z,96758.59
2023-04-04T16:52:11.842Z,96766.00
2023-04-04T16:54:39.680Z,96763.09
2023-04-04T16:57:07.394Z,96760.25
2023-04-04T16:59:37.156Z,96769.25
2023-04-04T17:02:08.156Z,96762.31
2023-04-04T17:04:39.464Z,96774.75
2023-04-04T17:07:08.961Z,96770.06
2023-04-04T17:09:36.968Z,96754.94
2023-04-04T17:12:05.212Z,96768.84
2023-04-04T17:14:33.363Z,96761.50
2023-04-04T17:17:01.288Z,96760.66
2023-04-04T17:19:31.737Z,96761.47
2023-04-04T17:21:59.912Z,96760.22
2023-04-04T17:24:27.708Z,96759.22
2023-04-04T17:26:57.888Z,96752.47
2023-04-04T17:29:27.494Z,96753.44
2023-04-04T17:31:56.668Z,96758.31
2023-04-04T17:34:24.930Z,96757.53
2023-04-04T17:36:54.867Z,96752.44
2023-04-04T17:39:22.774Z,96757.94
2023-04-04T17:41:52.040Z,96748.72
2023-04-04T17:44:21.690Z,96757.69
2023-04-04T17:46:49.394Z,96752.38
2023-04-04T17:49:19.697Z,96757.63
2023-04-04T17:51:48.638Z,96753.31
2023-04-04T17:54:17.980Z,96753.13
2023-04-04T17:56:46.872Z,96753.75
2023-04-04T17:59:16.504Z,96746.19
2023-04-04T18:01:44.822Z,96746.97
2023-04-04T18:04:12.900Z,96756.75
2023-04-04T18:06:41.809Z,96752.66
2023-04-04T18:09:10.219Z,96756.97
2023-04-04T18:11:39.997Z,96752.25
2023-04-04T18:14:08.614Z,96747.53
2023-04-04T18:16:40.300Z,96741.00
2023-04-04T18:19:08.643Z,96746.06
2023-04-04T18:21:36.526Z,96751.75
2023-04-04T18:24:07.279Z,96757.00
2023-04-04T18:26:35.426Z,96747.94
2023-04-04T18:29:04.548Z,96756.91
2023-04-04T18:31:32.426Z,96762.66
2023-04-04T18:34:00.942Z,96769.34
2023-04-04T18:36:28.797Z,96765.41
2023-04-04T18:38:56.860Z,96765.00
2023-04-04T18:41:24.754Z,96774.00
2023-04-04T18:43:52.601Z,96772.16
2023-04-04T18:46:21.724Z,96775.25
2023-04-04T18:48:49.478Z,96779.59
2023-04-04T18:51:17.528Z,96787.00
2023-04-04T18:53:45.327Z,96776.31
2023-04-04T18:56:13.176Z,96776.09
2023-04-04T18:58:41.809Z,96782.69
2023-04-04T19:01:09.566Z,96782.44
2023-04-04T19:03:42.875Z,96779.44
2023-04-04T19:06:12.791Z,96785.84
2023-04-04T19:08:41.369Z,96786.66
2023-04-04T19:11:09.780Z,96784.16
2023-04-04T19:13:37.948Z,96783.06
2023-04-04T19:16:05.862Z,96796.47
2023-04-04T19:18:33.735Z,96776.03
2023-04-04T19:21:02.899Z,96791.78
2023-04-04T19:23:30.826Z,96799.47
2023-04-04T19:26:02.071Z,96794.03
2023-04-04T19:28:29.906Z,96799.50
2023-04-04T19:30:57.703Z,96798.44
2023-04-04T19:33:27.731Z,96795.44
2023-04-04T19:35:59.261Z,96809.22
2023-04-04T19:38:29.992Z,96809.19
2023-04-04T19:40:59.321Z,96809.63
2023-04-04T19:43:28.518Z,96808.91
2023-04-04T19:45:57.495Z,96808.72
2023-04-04T19:48:40.813Z,96815.56
2023-04-04T19:51:11.047Z,96809.91
2023-04-04T19:53:40.850Z,96815.94
2023-04-04T19:56:10.382Z,96815.38
2023-04-04T19:58:39.431Z,96816.50
2023-04-04T20:01:08.434Z,96797.97
2023-04-04T20:03:37.752Z,96810.47
2023-04-04T20:06:10.137Z,96798.97
2023-04-04T20:08:49.082Z,96801.50
2023-04-04T20:11:17.944Z,96807.84
2023-04-04T20:13:46.741Z,96803.78
2023-04-04T20:16:15.724Z,96800.22
2023-04-04T20:18:45.097Z,96805.03
2023-04-04T20:21:14.960Z,96791.88
2023-04-04T20:23:47.544Z,96807.03
2023-04-04T20:26:35.743Z,96808.94
2023-04-04T20:29:06.562Z,96805.94
2023-04-04T20:31:36.601Z,96809.16
2023-04-04T20:34:06.944Z,96820.31
2023-04-04T20:36:41.915Z,96805.22
2023-04-04T20:39:41.234Z,96807.31
2023-04-04T20:42:18.878Z,96807.88
2023-04-04T20:44:47.330Z,96814.66
2023-04-04T20:47:37.365Z,96813.19
2023-04-04T20:50:41.393Z,96811.88
2023-04-04T20:53:12.577Z,96813.47
2023-04-04T20:55:43.413Z,96821.78
2023-04-04T20:58:25.339Z,96814.06
2023-04-04T21:00:53.547Z,96813.16
2023-04-04T21:03:35.971Z,96817.59
2023-04-04T21:06:11.062Z,96812.78
2023-04-04T21:08:43.271Z,96817.09
2023-04-04T21:11:13.047Z,96810.38
2023-04-04T21:13:42.770Z,96799.63
2023-04-04T21:16:12.538Z,96794.00
2023-04-04T21:18:41.983Z,96800.94
2023-04-04T21:21:16.734Z,96793.31
2023-04-04T21:23:50.429Z,96796.13
2023-04-04T21:26:28.395Z,96797.31
2023-04-04T21:28:57.240Z,96796.75
2023-04-04T21:31:26.551Z,96800.63
2023-04-04T21:33:56.424Z,96805.91
2023-04-04T21:36:29.342Z,96810.50
2023-04-04T21:38:58.676Z,96806.59
2023-04-04T21:41:29.996Z,96803.81
2023-04-04T21:43:59.973Z,96803.78
2023-04-04T21:46:29.314Z,96807.88
2023-04-04T21:48:57.612Z,96814.13
2023-04-04T21:51:26.156Z,96821.97
2023-04-04T21:53:53.918Z,96822.63
2023-04-04T21:56:22.724Z,96820.16
2023-04-04T21:58:51.883Z,96827.44
2023-04-04T22:01:19.768Z,96824.84
2023-04-04T22:03:48.106Z,96824.44
2023-04-04T22:06:15.876Z,96816.84
2023-04-04T22:08:44.051Z,96824.06
2023-04-04T22:11:14.198Z,96821.81
2023-04-04T22:13:47.111Z,96823.25
2023-04-04T22:16:18.027Z,96814.53
2023-04-04T22:18:47.752Z,96816.09
2023-04-04T22:21:16.649Z,96816.09
2023-04-04T22:23:44.827Z,96808.38
2023-04-04T22:26:15.373Z,96808.53
2023-04-04T22:28:45.804Z,96814.44
2023-04-04T22:31:13.745Z,96817.22
2023-04-04T22:33:43.483Z,96812.16
2023-04-04T22:36:11.266Z,96804.94
2023-04-04T22:38:39.412Z,96808.19
2023-04-04T22:41:08.790Z,96812.56
2023-04-04T22:43:36.536Z,96811.28
2023-04-04T22:46:04.279Z,96814.06
2023-04-04T22:48:31.972Z,96808.91
2023-04-04T22:51:02.838Z,96812.72
2023-04-04T22:53:30.520Z,96810.25
2023-04-04T22:56:00.654Z,96814.56
2023-04-04T22:58:28.407Z,96808.34
2023-04-04T23:00:56.185Z,96807.00
2023-04-04T23:03:23.994Z,96813.84
2023-04-04T23:05:51.810Z,96818.03
2023-04-04T23:08:20.917Z,96817.13
2023-04-04T23:10:48.562Z,96811.97
2023-04-04T23:13:16.301Z,96818.19
2023-04-04T23:15:45.087Z,96821.13
2023-04-04T23:18:13.453Z,96813.22
2023-04-04T23:20:41.858Z,96816.22
2023-04-04T23:23:09.813Z,96817.47
2023-04-04T23:25:38.949Z,96821.59
2023-04-04T23:28:06.798Z,96812.63
2023-04-04T23:30:34.519Z,96809.19
2023-04-04T23:33:02.338Z,96811.31
2023-04-04T23:35:30.528Z,96817.25
2023-04-04T23:37:58.233Z,96809.44
2023-04-04T23:40:25.917Z,96807.41
2023-04-04T23:42:55.104Z,96805.88
2023-04-04T23:45:24.080Z,96808.88
2023-04-04T23:47:51.824Z,96800.56
2023-04-04T23:50:19.778Z,96799.69
2023-04-04T23:52:47.577Z,96795.59
2023-04-04T23:55:17.017Z,96798.50
2023-04-04T23:57:45.103Z,96794.31
